Aérodrome :
LOGIN :

S'inscrire | Disclaimer

   EN    FR    IT 

 










Légende :    VFR   VFR Marginal   IFR   IFR Intensif   IFR Très Intensif
Visi : 
Plafond : 
>= 8 km
>= 3000ft
5 à 8 km
1000 à 3000 ft
1500m à 5 km
500 à 1000 ft
800 à 1500m
200 à 500 ft
< 800m
< 200 ft
Symboles :   Orages  Brouillard  Fortes neiges  Fortes précipitations  Vent > 20 kt
SIGMETs :   Divers  Orages  Givrage  Turbulence  Onde Orograph.  Cendres Volcan.







- Altitude de l'aérodrome : 255 ft


ENGC - Gullfaks C oil platform

DERNIER METAR :
  • 161250Z 04010KT 9999 FEW030 09/M01 Q1012 W06/S4

METARs EXPIRÉS :
  • 161220Z 03011KT 9999 FEW030 08/00 Q1012 W06/S4
  • 161150Z 02014KT 9999 BKN030 08/01 Q1011 W06/S4
  • 161120Z 02015KT 9999 FEW012 SCT025 07/00 Q1011 W06/S4
  • 161050Z 02016KT 9999 FEW012 SCT025 07/01 Q1010 W06/S4
  • 161020Z 02008KT 9999 FEW012 SCT025 07/03 Q1009 W06/S4
  • 160950Z 02008KT 9999 FEW012 SCT035 06/03 Q1009 W06/S4

TAF TAF ENGC
Valide du 16 à 12h jusqu'au 17 à 12h UTC


1612/1712 02015KT 9999 FEW012 SCT025
BECMG 1617/1619 10015KT
BECMG 1704/1706 15025KT BKN012
TEMPO 1706/1712 3000 -RADZ BR BKN006
Pas de NOTAMs connus pour ce terrain.
4 SIGMETs publiés pour la FIR Norway (ENOR) :
 
Annulation du SIGMET D1
ENBD SIGMET D14 VALID 161149/161600 ENVN
ENOR NORWAY FIR CNL SIGMET D12 161200/161600=
Onde orographique forte
ENBD SIGMET D13 VALID 161200/161500 ENVN
ENOR NORWAY FIR SEV MTW FCST WI N6805 E01705 - N6820 E01958 - N6928 E02105 - N6955 E01850 - N6805 E01705 SFC/FL100 STNR NC=
Onde orographique forte
ENBD SIGMET D12 VALID 161200/161600 ENVN
ENOR NORWAY FIR SEV MTW FCST WI N6805 E01705 - N6820 E01958 - N6928 E02105 - N6955 E01850 - N6805 E01705 SFC/FL100 STNR NC=
Turbulence forte
ENBD SIGMET D11 VALID 161100/161500 ENVN
ENOR NORWAY FIR SEV TURB FCST WI N6805 E01710 - N6500 E01410 - N6600 E01225 - N6825 E01300 - N6955 E01850 - N6805 E01710 SFC/FL100 STNR NC=



MET'MAP, la Météo Aéronautique d'un coup d'oeil ! - Copyright ORBIFLY Décembre 2007 - Disclaimer

ORBIFLY MET'MAP TEAM :

Programmation & Développement : Alexandra Zaïnal
Conception & Développement : Baudouin d'Aumeries
Co-Programmation & Développement : Marc-Olivier Méhu
Soutien technique & logistique : Manuel Goepfert

Contact : metmap@orbifly.com




SOURCES & CREDITS :

   NOAA